sensor_id;sensor_type;location;lat;lon;timestamp;temperature;humidity
73777;DHT22;62088;50.240;2.696;2024-02-23T00:00:36;5.70;82.40
73777;DHT22;62088;50.240;2.696;2024-02-23T00:03:03;5.70;82.40
73777;DHT22;62088;50.240;2.696;2024-02-23T00:05:30;5.70;82.50
73777;DHT22;62088;50.240;2.696;2024-02-23T00:07:58;5.70;82.50
73777;DHT22;62088;50.240;2.696;2024-02-23T00:10:25;5.70;82.50
73777;DHT22;62088;50.240;2.696;2024-02-23T00:12:53;5.70;82.60
73777;DHT22;62088;50.240;2.696;2024-02-23T00:15:20;5.70;82.60
73777;DHT22;62088;50.240;2.696;2024-02-23T00:17:47;5.70;82.50
73777;DHT22;62088;50.240;2.696;2024-02-23T00:20:14;5.70;82.60
73777;DHT22;62088;50.240;2.696;2024-02-23T00:22:42;5.70;82.60
73777;DHT22;62088;50.240;2.696;2024-02-23T00:25:09;5.70;82.60
73777;DHT22;62088;50.240;2.696;2024-02-23T00:27:36;5.70;82.60
73777;DHT22;62088;50.240;2.696;2024-02-23T00:30:04;5.70;82.70
73777;DHT22;62088;50.240;2.696;2024-02-23T00:32:31;5.70;82.70
73777;DHT22;62088;50.240;2.696;2024-02-23T00:34:58;5.70;82.70
73777;DHT22;62088;50.240;2.696;2024-02-23T00:37:25;5.60;82.70
73777;DHT22;62088;50.240;2.696;2024-02-23T00:39:52;5.60;82.70
73777;DHT22;62088;50.240;2.696;2024-02-23T00:42:19;5.70;82.80
73777;DHT22;62088;50.240;2.696;2024-02-23T00:44:47;5.60;82.80
73777;DHT22;62088;50.240;2.696;2024-02-23T00:47:14;5.60;82.80
73777;DHT22;62088;50.240;2.696;2024-02-23T00:49:41;5.70;82.80
73777;DHT22;62088;50.240;2.696;2024-02-23T00:52:08;5.60;82.80
73777;DHT22;62088;50.240;2.696;2024-02-23T00:54:35;5.70;82.80
73777;DHT22;62088;50.240;2.696;2024-02-23T00:57:02;5.60;82.80
73777;DHT22;62088;50.240;2.696;2024-02-23T00:59:29;5.70;82.80
73777;DHT22;62088;50.240;2.696;2024-02-23T01:01:57;5.60;82.80
73777;DHT22;62088;50.240;2.696;2024-02-23T01:04:24;5.60;82.70
73777;DHT22;62088;50.240;2.696;2024-02-23T01:06:51;5.70;82.70
73777;DHT22;62088;50.240;2.696;2024-02-23T01:09:18;5.70;82.70
73777;DHT22;62088;50.240;2.696;2024-02-23T01:11:47;5.70;82.70
73777;DHT22;62088;50.240;2.696;2024-02-23T01:14:15;5.60;82.70
73777;DHT22;62088;50.240;2.696;2024-02-23T01:16:42;5.70;82.70
73777;DHT22;62088;50.240;2.696;2024-02-23T01:19:09;5.70;82.70
73777;DHT22;62088;50.240;2.696;2024-02-23T01:21:37;5.70;82.70
73777;DHT22;62088;50.240;2.696;2024-02-23T01:24:04;5.70;82.80
73777;DHT22;62088;50.240;2.696;2024-02-23T01:26:31;5.70;82.80
73777;DHT22;62088;50.240;2.696;2024-02-23T01:28:58;5.70;82.80
73777;DHT22;62088;50.240;2.696;2024-02-23T01:31:25;5.80;82.80
73777;DHT22;62088;50.240;2.696;2024-02-23T01:33:52;5.80;82.80
73777;DHT22;62088;50.240;2.696;2024-02-23T01:36:20;5.80;82.70
73777;DHT22;62088;50.240;2.696;2024-02-23T01:38:47;5.70;82.80
73777;DHT22;62088;50.240;2.696;2024-02-23T01:41:14;5.70;82.80
73777;DHT22;62088;50.240;2.696;2024-02-23T01:43:41;5.70;82.80
73777;DHT22;62088;50.240;2.696;2024-02-23T01:46:08;5.70;82.70
73777;DHT22;62088;50.240;2.696;2024-02-23T01:48:35;5.70;82.70
73777;DHT22;62088;50.240;2.696;2024-02-23T01:51:04;5.70;82.70
73777;DHT22;62088;50.240;2.696;2024-02-23T01:53:31;5.70;82.70
73777;DHT22;62088;50.240;2.696;2024-02-23T01:55:59;5.70;82.70
73777;DHT22;62088;50.240;2.696;2024-02-23T01:58:28;5.60;82.60
73777;DHT22;62088;50.240;2.696;2024-02-23T02:00:56;5.60;82.50
73777;DHT22;62088;50.240;2.696;2024-02-23T02:03:23;5.50;82.50
73777;DHT22;62088;50.240;2.696;2024-02-23T02:05:51;5.50;82.50
73777;DHT22;62088;50.240;2.696;2024-02-23T02:08:19;5.50;82.60
73777;DHT22;62088;50.240;2.696;2024-02-23T02:10:47;5.50;82.60
73777;DHT22;62088;50.240;2.696;2024-02-23T02:13:14;5.50;82.60
73777;DHT22;62088;50.240;2.696;2024-02-23T02:15:41;5.50;82.60
73777;DHT22;62088;50.240;2.696;2024-02-23T02:18:10;5.50;82.60
73777;DHT22;62088;50.240;2.696;2024-02-23T02:20:40;5.50;82.60
73777;DHT22;62088;50.240;2.696;2024-02-23T02:23:17;5.40;82.50
73777;DHT22;62088;50.240;2.696;2024-02-23T02:25:44;5.40;82.50
73777;DHT22;62088;50.240;2.696;2024-02-23T02:28:11;5.40;82.50
73777;DHT22;62088;50.240;2.696;2024-02-23T02:30:38;5.40;82.50
73777;DHT22;62088;50.240;2.696;2024-02-23T02:33:05;5.40;82.40
73777;DHT22;62088;50.240;2.696;2024-02-23T02:35:32;5.40;82.30
73777;DHT22;62088;50.240;2.696;2024-02-23T02:37:59;5.30;82.30
73777;DHT22;62088;50.240;2.696;2024-02-23T02:40:26;5.30;82.30
73777;DHT22;62088;50.240;2.696;2024-02-23T02:42:53;5.30;82.30
73777;DHT22;62088;50.240;2.696;2024-02-23T02:45:20;5.30;82.30
73777;DHT22;62088;50.240;2.696;2024-02-23T02:47:48;5.20;82.30
73777;DHT22;62088;50.240;2.696;2024-02-23T02:50:15;5.20;82.30
73777;DHT22;62088;50.240;2.696;2024-02-23T02:52:43;5.20;82.30
73777;DHT22;62088;50.240;2.696;2024-02-23T02:55:10;5.20;82.30
73777;DHT22;62088;50.240;2.696;2024-02-23T02:57:37;5.20;82.40
73777;DHT22;62088;50.240;2.696;2024-02-23T03:00:05;5.10;82.40
73777;DHT22;62088;50.240;2.696;2024-02-23T03:02:32;5.10;82.40
73777;DHT22;62088;50.240;2.696;2024-02-23T03:04:59;5.20;82.50
73777;DHT22;62088;50.240;2.696;2024-02-23T03:07:26;5.20;82.60
73777;DHT22;62088;50.240;2.696;2024-02-23T03:09:53;5.20;82.60
73777;DHT22;62088;50.240;2.696;2024-02-23T03:12:21;5.20;82.60
73777;DHT22;62088;50.240;2.696;2024-02-23T03:14:48;5.20;82.60
73777;DHT22;62088;50.240;2.696;2024-02-23T03:17:15;5.20;82.50
73777;DHT22;62088;50.240;2.696;2024-02-23T03:19:42;5.20;82.50
73777;DHT22;62088;50.240;2.696;2024-02-23T03:22:09;5.20;82.50
73777;DHT22;62088;50.240;2.696;2024-02-23T03:24:36;5.20;82.60
73777;DHT22;62088;50.240;2.696;2024-02-23T03:27:04;5.20;82.50
73777;DHT22;62088;50.240;2.696;2024-02-23T03:29:31;5.20;82.60
73777;DHT22;62088;50.240;2.696;2024-02-23T03:31:59;5.20;82.50
73777;DHT22;62088;50.240;2.696;2024-02-23T03:34:28;5.20;82.50
73777;DHT22;62088;50.240;2.696;2024-02-23T03:36:55;5.20;82.50
73777;DHT22;62088;50.240;2.696;2024-02-23T03:39:22;5.20;82.50
73777;DHT22;62088;50.240;2.696;2024-02-23T03:41:49;5.20;82.50
73777;DHT22;62088;50.240;2.696;2024-02-23T03:44:16;5.10;82.50
73777;DHT22;62088;50.240;2.696;2024-02-23T03:46:43;5.20;82.50
73777;DHT22;62088;50.240;2.696;2024-02-23T03:49:10;5.10;82.50
73777;DHT22;62088;50.240;2.696;2024-02-23T03:51:38;5.10;82.50
73777;DHT22;62088;50.240;2.696;2024-02-23T03:54:06;5.10;82.50
73777;DHT22;62088;50.240;2.696;2024-02-23T03:56:40;5.00;82.60
73777;DHT22;62088;50.240;2.696;2024-02-23T03:59:09;5.00;82.60
73777;DHT22;62088;50.240;2.696;2024-02-23T04:01:39;5.00;82.60
73777;DHT22;62088;50.240;2.696;2024-02-23T04:04:06;5.00;82.70
73777;DHT22;62088;50.240;2.696;2024-02-23T04:06:34;5.00;82.70
73777;DHT22;62088;50.240;2.696;2024-02-23T04:09:02;5.00;82.80
73777;DHT22;62088;50.240;2.696;2024-02-23T04:11:32;5.10;82.80
73777;DHT22;62088;50.240;2.696;2024-02-23T04:14:00;5.10;82.60
73777;DHT22;62088;50.240;2.696;2024-02-23T04:16:27;5.10;82.60
73777;DHT22;62088;50.240;2.696;2024-02-23T04:18:54;5.10;82.50
73777;DHT22;62088;50.240;2.696;2024-02-23T04:21:23;5.10;82.50
73777;DHT22;62088;50.240;2.696;2024-02-23T04:23:51;5.10;82.50
73777;DHT22;62088;50.240;2.696;2024-02-23T04:26:18;5.10;82.50
73777;DHT22;62088;50.240;2.696;2024-02-23T04:28:45;5.10;82.50
73777;DHT22;62088;50.240;2.696;2024-02-23T04:31:12;5.00;82.50
73777;DHT22;62088;50.240;2.696;2024-02-23T04:33:39;5.00;82.50
73777;DHT22;62088;50.240;2.696;2024-02-23T04:36:07;5.00;82.60
73777;DHT22;62088;50.240;2.696;2024-02-23T04:38:34;5.00;82.60
73777;DHT22;62088;50.240;2.696;2024-02-23T04:41:04;5.00;82.60
73777;DHT22;62088;50.240;2.696;2024-02-23T04:43:32;5.00;82.70
73777;DHT22;62088;50.240;2.696;2024-02-23T04:45:59;5.00;82.80
73777;DHT22;62088;50.240;2.696;2024-02-23T04:48:26;5.10;82.80
73777;DHT22;62088;50.240;2.696;2024-02-23T04:50:55;5.10;82.80
73777;DHT22;62088;50.240;2.696;2024-02-23T04:53:21;5.10;82.80
73777;DHT22;62088;50.240;2.696;2024-02-23T04:55:49;5.10;82.80
73777;DHT22;62088;50.240;2.696;2024-02-23T04:58:16;5.10;82.70
73777;DHT22;62088;50.240;2.696;2024-02-23T05:00:43;5.10;82.60
73777;DHT22;62088;50.240;2.696;2024-02-23T05:03:10;5.10;82.60
73777;DHT22;62088;50.240;2.696;2024-02-23T05:05:38;5.10;82.60
73777;DHT22;62088;50.240;2.696;2024-02-23T05:08:06;5.10;82.70
73777;DHT22;62088;50.240;2.696;2024-02-23T05:10:34;5.10;82.70
73777;DHT22;62088;50.240;2.696;2024-02-23T05:13:01;5.10;82.70
73777;DHT22;62088;50.240;2.696;2024-02-23T05:15:28;5.10;82.80
73777;DHT22;62088;50.240;2.696;2024-02-23T05:17:55;5.10;82.80
73777;DHT22;62088;50.240;2.696;2024-02-23T05:20:22;5.10;82.90
73777;DHT22;62088;50.240;2.696;2024-02-23T05:22:49;5.10;82.80
73777;DHT22;62088;50.240;2.696;2024-02-23T05:25:16;5.20;82.80
73777;DHT22;62088;50.240;2.696;2024-02-23T05:27:43;5.20;82.80
73777;DHT22;62088;50.240;2.696;2024-02-23T05:30:11;5.20;82.80
73777;DHT22;62088;50.240;2.696;2024-02-23T05:32:39;5.20;82.70
73777;DHT22;62088;50.240;2.696;2024-02-23T05:35:06;5.20;82.80
73777;DHT22;62088;50.240;2.696;2024-02-23T05:37:33;5.20;82.70
73777;DHT22;62088;50.240;2.696;2024-02-23T05:40:00;5.20;82.70
73777;DHT22;62088;50.240;2.696;2024-02-23T05:42:30;5.20;82.70
73777;DHT22;62088;50.240;2.696;2024-02-23T05:44:58;5.20;82.70
73777;DHT22;62088;50.240;2.696;2024-02-23T05:47:25;5.10;82.70
73777;DHT22;62088;50.240;2.696;2024-02-23T05:49:52;5.20;82.80
73777;DHT22;62088;50.240;2.696;2024-02-23T05:52:20;5.20;82.80
73777;DHT22;62088;50.240;2.696;2024-02-23T05:54:47;5.20;82.80
73777;DHT22;62088;50.240;2.696;2024-02-23T05:57:18;5.20;82.80
73777;DHT22;62088;50.240;2.696;2024-02-23T05:59:45;5.20;82.80
73777;DHT22;62088;50.240;2.696;2024-02-23T06:02:12;5.20;82.70
73777;DHT22;62088;50.240;2.696;2024-02-23T06:04:40;5.20;82.70
73777;DHT22;62088;50.240;2.696;2024-02-23T06:07:07;5.20;82.70
73777;DHT22;62088;50.240;2.696;2024-02-23T06:09:35;5.20;82.80
73777;DHT22;62088;50.240;2.696;2024-02-23T06:12:02;5.20;82.70
73777;DHT22;62088;50.240;2.696;2024-02-23T06:14:30;5.20;82.70
73777;DHT22;62088;50.240;2.696;2024-02-23T06:16:57;5.10;82.80
73777;DHT22;62088;50.240;2.696;2024-02-23T06:19:24;5.20;82.80
73777;DHT22;62088;50.240;2.696;2024-02-23T06:21:51;5.20;82.90
73777;DHT22;62088;50.240;2.696;2024-02-23T06:24:18;5.20;82.90
73777;DHT22;62088;50.240;2.696;2024-02-23T06:26:46;5.20;82.90
73777;DHT22;62088;50.240;2.696;2024-02-23T06:29:15;5.30;82.90
73777;DHT22;62088;50.240;2.696;2024-02-23T06:31:42;5.20;83.00
73777;DHT22;62088;50.240;2.696;2024-02-23T06:34:16;5.20;83.00
73777;DHT22;62088;50.240;2.696;2024-02-23T06:36:43;5.30;83.00
73777;DHT22;62088;50.240;2.696;2024-02-23T06:39:10;5.30;83.00
73777;DHT22;62088;50.240;2.696;2024-02-23T06:41:38;5.30;83.00
73777;DHT22;62088;50.240;2.696;2024-02-23T06:44:05;5.40;83.00
73777;DHT22;62088;50.240;2.696;2024-02-23T06:46:33;5.40;83.00
73777;DHT22;62088;50.240;2.696;2024-02-23T06:49:00;5.40;83.00
73777;DHT22;62088;50.240;2.696;2024-02-23T06:51:27;5.40;83.00
73777;DHT22;62088;50.240;2.696;2024-02-23T06:53:54;5.40;83.00
73777;DHT22;62088;50.240;2.696;2024-02-23T06:56:23;5.40;82.90
73777;DHT22;62088;50.240;2.696;2024-02-23T06:58:50;5.40;82.90
73777;DHT22;62088;50.240;2.696;2024-02-23T07:01:20;5.50;82.90
73777;DHT22;62088;50.240;2.696;2024-02-23T07:03:47;5.50;82.90
73777;DHT22;62088;50.240;2.696;2024-02-23T07:06:17;5.50;82.90
73777;DHT22;62088;50.240;2.696;2024-02-23T07:08:45;5.50;82.90
73777;DHT22;62088;50.240;2.696;2024-02-23T07:11:12;5.50;82.90
73777;DHT22;62088;50.240;2.696;2024-02-23T07:13:43;5.60;82.90
73777;DHT22;62088;50.240;2.696;2024-02-23T07:16:10;5.50;83.00
73777;DHT22;62088;50.240;2.696;2024-02-23T07:18:37;5.60;83.00
73777;DHT22;62088;50.240;2.696;2024-02-23T07:21:04;5.60;83.10
73777;DHT22;62088;50.240;2.696;2024-02-23T07:23:31;5.60;83.20
73777;DHT22;62088;50.240;2.696;2024-02-23T07:25:58;5.60;83.30
73777;DHT22;62088;50.240;2.696;2024-02-23T07:28:25;5.60;83.40
73777;DHT22;62088;50.240;2.696;2024-02-23T07:30:52;5.60;83.40
73777;DHT22;62088;50.240;2.696;2024-02-23T07:33:20;5.60;83.50
73777;DHT22;62088;50.240;2.696;2024-02-23T07:35:47;5.60;83.50
73777;DHT22;62088;50.240;2.696;2024-02-23T07:38:14;5.60;83.50
73777;DHT22;62088;50.240;2.696;2024-02-23T07:40:41;5.60;83.50
73777;DHT22;62088;50.240;2.696;2024-02-23T07:43:08;5.60;83.50
73777;DHT22;62088;50.240;2.696;2024-02-23T07:45:38;5.60;83.50
73777;DHT22;62088;50.240;2.696;2024-02-23T07:48:05;5.70;83.40
73777;DHT22;62088;50.240;2.696;2024-02-23T07:50:32;5.70;83.40
73777;DHT22;62088;50.240;2.696;2024-02-23T07:52:59;5.60;83.30
73777;DHT22;62088;50.240;2.696;2024-02-23T07:55:27;5.70;83.30
73777;DHT22;62088;50.240;2.696;2024-02-23T07:57:54;5.70;83.30
73777;DHT22;62088;50.240;2.696;2024-02-23T08:00:28;5.60;83.30
73777;DHT22;62088;50.240;2.696;2024-02-23T08:02:55;5.70;83.30
73777;DHT22;62088;50.240;2.696;2024-02-23T08:05:23;5.70;83.30
73777;DHT22;62088;50.240;2.696;2024-02-23T08:07:51;5.70;83.30
73777;DHT22;62088;50.240;2.696;2024-02-23T08:10:18;5.70;83.30
73777;DHT22;62088;50.240;2.696;2024-02-23T08:12:45;5.70;83.30
73777;DHT22;62088;50.240;2.696;2024-02-23T08:15:12;5.70;83.30
73777;DHT22;62088;50.240;2.696;2024-02-23T08:17:39;5.80;83.40
73777;DHT22;62088;50.240;2.696;2024-02-23T08:20:07;5.80;83.40
73777;DHT22;62088;50.240;2.696;2024-02-23T08:22:35;5.90;83.40
73777;DHT22;62088;50.240;2.696;2024-02-23T08:25:02;5.80;83.40
73777;DHT22;62088;50.240;2.696;2024-02-23T08:27:29;5.90;83.40
73777;DHT22;62088;50.240;2.696;2024-02-23T08:29:57;5.90;83.40
73777;DHT22;62088;50.240;2.696;2024-02-23T08:32:24;5.90;83.40
73777;DHT22;62088;50.240;2.696;2024-02-23T08:34:51;5.90;83.40
73777;DHT22;62088;50.240;2.696;2024-02-23T08:37:19;5.90;83.40
73777;DHT22;62088;50.240;2.696;2024-02-23T08:39:46;5.90;83.40
73777;DHT22;62088;50.240;2.696;2024-02-23T08:42:13;6.00;83.30
73777;DHT22;62088;50.240;2.696;2024-02-23T08:44:40;6.00;83.30
73777;DHT22;62088;50.240;2.696;2024-02-23T08:47:08;6.00;83.30
73777;DHT22;62088;50.240;2.696;2024-02-23T08:49:35;6.00;83.30
73777;DHT22;62088;50.240;2.696;2024-02-23T08:52:02;6.00;83.30
73777;DHT22;62088;50.240;2.696;2024-02-23T08:54:30;6.10;83.40
73777;DHT22;62088;50.240;2.696;2024-02-23T08:56:57;6.10;83.40
73777;DHT22;62088;50.240;2.696;2024-02-23T08:59:25;6.20;83.40
73777;DHT22;62088;50.240;2.696;2024-02-23T09:01:52;6.30;83.40
73777;DHT22;62088;50.240;2.696;2024-02-23T09:04:19;6.40;83.40
73777;DHT22;62088;50.240;2.696;2024-02-23T09:06:46;6.40;83.20
73777;DHT22;62088;50.240;2.696;2024-02-23T09:09:13;6.50;83.10
73777;DHT22;62088;50.240;2.696;2024-02-23T09:11:40;6.50;83.00
73777;DHT22;62088;50.240;2.696;2024-02-23T09:14:07;6.60;82.90
73777;DHT22;62088;50.240;2.696;2024-02-23T09:16:35;6.70;82.80
73777;DHT22;62088;50.240;2.696;2024-02-23T09:19:02;6.70;82.70
73777;DHT22;62088;50.240;2.696;2024-02-23T09:21:29;6.80;82.50
73777;DHT22;62088;50.240;2.696;2024-02-23T09:23:56;6.80;82.50
73777;DHT22;62088;50.240;2.696;2024-02-23T09:26:23;6.80;82.30
73777;DHT22;62088;50.240;2.696;2024-02-23T09:28:50;6.90;82.00
73777;DHT22;62088;50.240;2.696;2024-02-23T09:31:17;6.90;82.00
73777;DHT22;62088;50.240;2.696;2024-02-23T09:33:46;6.90;82.00
73777;DHT22;62088;50.240;2.696;2024-02-23T09:36:15;6.90;82.00
73777;DHT22;62088;50.240;2.696;2024-02-23T09:38:43;6.90;82.00
73777;DHT22;62088;50.240;2.696;2024-02-23T09:41:21;6.90;82.00
73777;DHT22;62088;50.240;2.696;2024-02-23T09:43:50;6.90;82.00
73777;DHT22;62088;50.240;2.696;2024-02-23T09:46:18;6.80;82.00
73777;DHT22;62088;50.240;2.696;2024-02-23T09:48:47;6.80;82.00
73777;DHT22;62088;50.240;2.696;2024-02-23T09:51:17;6.90;82.00
73777;DHT22;62088;50.240;2.696;2024-02-23T09:53:45;6.90;81.90
73777;DHT22;62088;50.240;2.696;2024-02-23T09:56:14;6.90;81.90
73777;DHT22;62088;50.240;2.696;2024-02-23T09:58:44;7.00;81.90
73777;DHT22;62088;50.240;2.696;2024-02-23T10:01:21;7.00;81.90
73777;DHT22;62088;50.240;2.696;2024-02-23T10:03:57;7.00;81.90
73777;DHT22;62088;50.240;2.696;2024-02-23T10:06:27;7.20;81.80
73777;DHT22;62088;50.240;2.696;2024-02-23T10:08:54;7.20;81.80
73777;DHT22;62088;50.240;2.696;2024-02-23T10:11:22;7.30;81.70
73777;DHT22;62088;50.240;2.696;2024-02-23T10:13:50;7.30;81.60
73777;DHT22;62088;50.240;2.696;2024-02-23T10:16:20;7.30;81.60
73777;DHT22;62088;50.240;2.696;2024-02-23T10:18:48;7.30;81.50
73777;DHT22;62088;50.240;2.696;2024-02-23T10:21:16;7.20;81.40
73777;DHT22;62088;50.240;2.696;2024-02-23T10:23:47;7.20;81.30
73777;DHT22;62088;50.240;2.696;2024-02-23T10:26:15;7.20;81.30
73777;DHT22;62088;50.240;2.696;2024-02-23T10:28:46;7.20;81.30
73777;DHT22;62088;50.240;2.696;2024-02-23T10:31:18;7.10;81.30
73777;DHT22;62088;50.240;2.696;2024-02-23T10:33:45;7.20;81.30
73777;DHT22;62088;50.240;2.696;2024-02-23T10:36:18;7.20;81.40
73777;DHT22;62088;50.240;2.696;2024-02-23T10:38:45;7.20;81.40
73777;DHT22;62088;50.240;2.696;2024-02-23T10:41:17;7.30;81.50
73777;DHT22;62088;50.240;2.696;2024-02-23T10:43:47;7.30;81.40
73777;DHT22;62088;50.240;2.696;2024-02-23T10:46:15;7.30;81.30
73777;DHT22;62088;50.240;2.696;2024-02-23T10:48:44;7.40;81.20
73777;DHT22;62088;50.240;2.696;2024-02-23T10:51:13;7.40;81.10
73777;DHT22;62088;50.240;2.696;2024-02-23T10:53:46;7.40;80.90
73777;DHT22;62088;50.240;2.696;2024-02-23T10:56:14;7.50;80.80
73777;DHT22;62088;50.240;2.696;2024-02-23T10:58:41;7.50;80.60
73777;DHT22;62088;50.240;2.696;2024-02-23T11:01:09;7.70;80.80
73777;DHT22;62088;50.240;2.696;2024-02-23T11:03:38;7.80;80.80
73777;DHT22;62088;50.240;2.696;2024-02-23T11:06:07;7.90;80.70
73777;DHT22;62088;50.240;2.696;2024-02-23T11:08:35;8.00;79.90
73777;DHT22;62088;50.240;2.696;2024-02-23T11:11:10;8.00;79.70
73777;DHT22;62088;50.240;2.696;2024-02-23T11:13:39;8.20;79.50
73777;DHT22;62088;50.240;2.696;2024-02-23T11:16:07;8.30;79.00
73777;DHT22;62088;50.240;2.696;2024-02-23T11:18:36;8.40;78.90
73777;DHT22;62088;50.240;2.696;2024-02-23T11:21:05;8.40;78.50
73777;DHT22;62088;50.240;2.696;2024-02-23T11:23:43;8.40;78.00
73777;DHT22;62088;50.240;2.696;2024-02-23T11:26:11;8.40;77.10
73777;DHT22;62088;50.240;2.696;2024-02-23T11:28:43;8.30;77.10
73777;DHT22;62088;50.240;2.696;2024-02-23T11:31:14;8.30;76.70
73777;DHT22;62088;50.240;2.696;2024-02-23T11:33:49;8.20;76.90
73777;DHT22;62088;50.240;2.696;2024-02-23T11:36:32;8.20;76.50
73777;DHT22;62088;50.240;2.696;2024-02-23T11:39:00;8.20;76.60
73777;DHT22;62088;50.240;2.696;2024-02-23T11:41:29;8.20;76.70
73777;DHT22;62088;50.240;2.696;2024-02-23T11:43:57;8.10;76.90
73777;DHT22;62088;50.240;2.696;2024-02-23T11:46:25;8.10;77.20
73777;DHT22;62088;50.240;2.696;2024-02-23T11:48:52;8.20;77.00
73777;DHT22;62088;50.240;2.696;2024-02-23T11:51:23;8.20;77.10
73777;DHT22;62088;50.240;2.696;2024-02-23T11:53:55;8.20;77.40
73777;DHT22;62088;50.240;2.696;2024-02-23T11:56:24;8.20;77.60
73777;DHT22;62088;50.240;2.696;2024-02-23T11:58:52;8.20;77.80
73777;DHT22;62088;50.240;2.696;2024-02-23T12:01:20;8.20;77.80
73777;DHT22;62088;50.240;2.696;2024-02-23T12:03:47;8.20;77.70
73777;DHT22;62088;50.240;2.696;2024-02-23T12:06:15;8.20;77.60
73777;DHT22;62088;50.240;2.696;2024-02-23T12:08:42;8.20;77.70
73777;DHT22;62088;50.240;2.696;2024-02-23T12:11:11;8.30;77.80
73777;DHT22;62088;50.240;2.696;2024-02-23T12:13:40;8.30;77.90
73777;DHT22;62088;50.240;2.696;2024-02-23T12:16:08;8.30;77.90
73777;DHT22;62088;50.240;2.696;2024-02-23T12:18:36;8.30;77.80
73777;DHT22;62088;50.240;2.696;2024-02-23T12:21:08;8.40;77.80
73777;DHT22;62088;50.240;2.696;2024-02-23T12:23:40;8.40;78.00
73777;DHT22;62088;50.240;2.696;2024-02-23T12:26:08;8.30;77.50
73777;DHT22;62088;50.240;2.696;2024-02-23T12:28:35;8.40;77.50
73777;DHT22;62088;50.240;2.696;2024-02-23T12:31:04;8.40;76.90
73777;DHT22;62088;50.240;2.696;2024-02-23T12:33:33;8.40;77.00
73777;DHT22;62088;50.240;2.696;2024-02-23T12:36:03;8.40;77.50
73777;DHT22;62088;50.240;2.696;2024-02-23T12:38:30;8.40;77.90
73777;DHT22;62088;50.240;2.696;2024-02-23T12:40:59;8.50;78.10
73777;DHT22;62088;50.240;2.696;2024-02-23T12:43:26;8.60;78.30
73777;DHT22;62088;50.240;2.696;2024-02-23T12:45:54;8.70;78.30
73777;DHT22;62088;50.240;2.696;2024-02-23T12:48:22;8.70;78.00
73777;DHT22;62088;50.240;2.696;2024-02-23T12:50:50;8.80;77.30
73777;DHT22;62088;50.240;2.696;2024-02-23T12:53:36;8.70;77.20
73777;DHT22;62088;50.240;2.696;2024-02-23T12:56:06;8.80;77.00
73777;DHT22;62088;50.240;2.696;2024-02-23T12:58:40;8.80;76.50
73777;DHT22;62088;50.240;2.696;2024-02-23T13:01:08;8.90;76.50
73777;DHT22;62088;50.240;2.696;2024-02-23T13:03:36;8.90;76.60
73777;DHT22;62088;50.240;2.696;2024-02-23T13:06:04;8.90;76.60
73777;DHT22;62088;50.240;2.696;2024-02-23T13:08:32;8.90;76.60
73777;DHT22;62088;50.240;2.696;2024-02-23T13:10:59;8.80;76.70
73777;DHT22;62088;50.240;2.696;2024-02-23T13:13:26;8.80;76.90
73777;DHT22;62088;50.240;2.696;2024-02-23T13:15:55;8.80;76.90
73777;DHT22;62088;50.240;2.696;2024-02-23T13:18:23;8.90;77.00
73777;DHT22;62088;50.240;2.696;2024-02-23T13:20:51;8.90;76.60
73777;DHT22;62088;50.240;2.696;2024-02-23T13:23:18;8.90;76.10
73777;DHT22;62088;50.240;2.696;2024-02-23T13:25:45;8.90;76.00
73777;DHT22;62088;50.240;2.696;2024-02-23T13:28:13;8.90;76.20
73777;DHT22;62088;50.240;2.696;2024-02-23T13:30:40;8.90;76.70
73777;DHT22;62088;50.240;2.696;2024-02-23T13:33:08;8.90;76.80
73777;DHT22;62088;50.240;2.696;2024-02-23T13:35:37;8.90;76.90
73777;DHT22;62088;50.240;2.696;2024-02-23T13:38:06;8.90;77.00
73777;DHT22;62088;50.240;2.696;2024-02-23T13:40:34;8.90;77.20
73777;DHT22;62088;50.240;2.696;2024-02-23T13:43:01;8.90;77.60
73777;DHT22;62088;50.240;2.696;2024-02-23T13:45:28;8.90;77.70
73777;DHT22;62088;50.240;2.696;2024-02-23T13:47:57;8.80;77.40
73777;DHT22;62088;50.240;2.696;2024-02-23T13:50:26;8.80;77.00
73777;DHT22;62088;50.240;2.696;2024-02-23T13:52:53;8.70;77.10
73777;DHT22;62088;50.240;2.696;2024-02-23T13:55:21;8.70;77.30
73777;DHT22;62088;50.240;2.696;2024-02-23T13:57:48;8.70;77.70
73777;DHT22;62088;50.240;2.696;2024-02-23T14:00:17;8.70;77.70
73777;DHT22;62088;50.240;2.696;2024-02-23T14:02:46;8.70;77.40
73777;DHT22;62088;50.240;2.696;2024-02-23T14:05:14;8.70;77.20
73777;DHT22;62088;50.240;2.696;2024-02-23T14:07:42;8.80;76.90
73777;DHT22;62088;50.240;2.696;2024-02-23T14:10:10;8.90;76.80
73777;DHT22;62088;50.240;2.696;2024-02-23T14:12:37;8.90;76.80
73777;DHT22;62088;50.240;2.696;2024-02-23T14:15:05;9.00;76.70
73777;DHT22;62088;50.240;2.696;2024-02-23T14:17:32;9.10;76.40
73777;DHT22;62088;50.240;2.696;2024-02-23T14:20:02;9.10;76.10
73777;DHT22;62088;50.240;2.696;2024-02-23T14:22:30;9.20;75.30
73777;DHT22;62088;50.240;2.696;2024-02-23T14:24:58;9.20;75.10
73777;DHT22;62088;50.240;2.696;2024-02-23T14:27:26;9.20;75.20
73777;DHT22;62088;50.240;2.696;2024-02-23T14:29:58;9.30;75.20
73777;DHT22;62088;50.240;2.696;2024-02-23T14:32:25;9.20;74.90
73777;DHT22;62088;50.240;2.696;2024-02-23T14:34:52;9.30;74.40
73777;DHT22;62088;50.240;2.696;2024-02-23T14:37:20;9.30;74.40
73777;DHT22;62088;50.240;2.696;2024-02-23T14:39:47;9.20;74.20
73777;DHT22;62088;50.240;2.696;2024-02-23T14:42:14;9.20;74.10
73777;DHT22;62088;50.240;2.696;2024-02-23T14:44:41;9.20;74.00
73777;DHT22;62088;50.240;2.696;2024-02-23T14:47:08;9.20;74.00
73777;DHT22;62088;50.240;2.696;2024-02-23T14:49:35;9.10;74.10
73777;DHT22;62088;50.240;2.696;2024-02-23T14:52:03;9.10;74.20
73777;DHT22;62088;50.240;2.696;2024-02-23T14:54:31;9.10;74.10
73777;DHT22;62088;50.240;2.696;2024-02-23T14:56:59;9.00;73.90
73777;DHT22;62088;50.240;2.696;2024-02-23T14:59:27;9.00;73.80
73777;DHT22;62088;50.240;2.696;2024-02-23T15:01:54;9.00;73.60
73777;DHT22;62088;50.240;2.696;2024-02-23T15:04:21;9.00;73.50
73777;DHT22;62088;50.240;2.696;2024-02-23T15:06:48;9.00;73.60
73777;DHT22;62088;50.240;2.696;2024-02-23T15:09:15;9.00;73.70
73777;DHT22;62088;50.240;2.696;2024-02-23T15:11:42;8.90;73.60
73777;DHT22;62088;50.240;2.696;2024-02-23T15:14:10;8.90;73.50
73777;DHT22;62088;50.240;2.696;2024-02-23T15:16:37;8.90;73.50
73777;DHT22;62088;50.240;2.696;2024-02-23T15:19:04;8.90;73.60
73777;DHT22;62088;50.240;2.696;2024-02-23T15:21:35;8.80;73.70
73777;DHT22;62088;50.240;2.696;2024-02-23T15:24:07;8.80;73.90
73777;DHT22;62088;50.240;2.696;2024-02-23T15:26:34;8.80;73.90
73777;DHT22;62088;50.240;2.696;2024-02-23T15:29:01;8.70;74.10
73777;DHT22;62088;50.240;2.696;2024-02-23T15:31:30;8.60;74.60
73777;DHT22;62088;50.240;2.696;2024-02-23T15:33:57;8.60;75.00
73777;DHT22;62088;50.240;2.696;2024-02-23T15:36:25;8.40;75.40
73777;DHT22;62088;50.240;2.696;2024-02-23T15:38:52;8.30;75.90
73777;DHT22;62088;50.240;2.696;2024-02-23T15:41:30;8.30;76.10
73777;DHT22;62088;50.240;2.696;2024-02-23T15:43:58;8.20;76.40
73777;DHT22;62088;50.240;2.696;2024-02-23T15:46:25;8.10;76.70
73777;DHT22;62088;50.240;2.696;2024-02-23T15:48:52;8.10;77.00